Time;durP1;ratioP1;P1;durP2;ratioP2;P2;SDS_P1;SDS_P2;PMS_P1;PMS_P2;Temp;Humidity;BMP_temperature;BMP_pressure;BME280_temperature;BME280_humidity;BME280_pressure;Samples;Min_cycle;Max_cycle;Signal;HPM_P1;HPM_P2
2022/03/18 00:01:02;;;;;;;43.20;24.30;;;7.30;99.90;;;;;;5061022;28;20433;-59
2022/03/18 00:03:28;;;;;;;44.87;25.80;;;7.30;99.90;;;;;;5056169;28;20297;-58
2022/03/18 00:05:53;;;;;;;41.77;24.70;;;7.30;99.90;;;;;;5060943;28;20918;-59
2022/03/18 00:08:19;;;;;;;39.80;24.70;;;7.30;99.90;;;;;;5061786;28;20585;-58
2022/03/18 00:10:45;;;;;;;48.20;25.23;;;7.30;99.90;;;;;;5062482;28;20175;-59
2022/03/18 00:13:11;;;;;;;39.90;24.17;;;7.30;99.90;;;;;;5064966;28;21132;-59
2022/03/18 00:15:36;;;;;;;39.20;24.07;;;7.30;99.90;;;;;;5061568;28;20204;-59
2022/03/18 00:18:02;;;;;;;41.83;24.33;;;7.20;99.90;;;;;;5064099;28;20845;-58
2022/03/18 00:20:28;;;;;;;45.70;25.67;;;7.20;99.90;;;;;;5058699;28;20288;-58
2022/03/18 00:22:53;;;;;;;41.90;24.37;;;7.20;99.90;;;;;;5065630;28;20205;-57
2022/03/18 00:25:20;;;;;;;38.17;22.97;;;7.20;99.90;;;;;;5064140;28;20175;-58
2022/03/18 00:27:49;;;;;;;39.77;22.93;;;7.20;99.90;;;;;;5064574;28;20265;-58
2022/03/18 00:30:16;;;;;;;39.70;25.00;;;7.20;99.90;;;;;;5058211;28;20512;-58
2022/03/18 00:32:43;;;;;;;40.30;24.67;;;7.10;99.90;;;;;;5065095;28;21261;-60
2022/03/18 00:35:10;;;;;;;37.73;23.20;;;7.10;99.90;;;;;;5064447;28;20433;-57
2022/03/18 00:37:39;;;;;;;41.80;22.60;;;7.10;99.90;;;;;;5063994;28;20435;-58
2022/03/18 00:40:06;;;;;;;43.30;22.20;;;7.10;99.90;;;;;;5060934;28;20432;-58
2022/03/18 00:42:32;;;;;;;37.70;22.60;;;7.10;99.90;;;;;;5062873;28;20441;-58
2022/03/18 00:44:59;;;;;;;39.23;23.40;;;7.10;99.90;;;;;;5064208;28;20519;-58
2022/03/18 00:52:53;;;;;;;35.93;21.97;;;7.10;99.90;;;;;;5061448;28;20511;-58
2022/03/18 00:55:19;;;;;;;37.40;22.27;;;7.10;99.90;;;;;;5062571;28;20456;-58
2022/03/18 00:57:44;;;;;;;36.73;22.00;;;7.00;99.90;;;;;;5059880;28;20729;-59
2022/03/18 01:00:11;;;;;;;36.97;22.40;;;7.00;99.90;;;;;;5060636;28;20179;-58
2022/03/18 01:02:37;;;;;;;37.93;21.97;;;7.00;99.90;;;;;;5064541;28;20747;-57
2022/03/18 01:05:03;;;;;;;33.67;20.53;;;7.00;99.90;;;;;;5063858;28;20420;-57
2022/03/18 01:07:29;;;;;;;32.60;20.10;;;7.00;99.90;;;;;;5059481;28;20240;-57
2022/03/18 01:09:56;;;;;;;29.07;19.90;;;7.00;99.90;;;;;;5064366;28;20433;-57
2022/03/18 01:12:21;;;;;;;32.50;20.20;;;7.00;99.90;;;;;;5064882;28;20452;-56
2022/03/18 01:14:47;;;;;;;32.90;19.77;;;7.00;99.90;;;;;;5060275;28;20405;-57
2022/03/18 01:17:13;;;;;;;31.97;19.90;;;7.00;99.90;;;;;;5064247;28;20566;-58
2022/03/18 01:19:40;;;;;;;37.80;21.03;;;7.00;99.90;;;;;;5063746;28;20174;-59
2022/03/18 01:22:08;;;;;;;33.90;20.13;;;7.00;99.90;;;;;;5064312;28;20429;-59
2022/03/18 01:24:35;;;;;;;33.80;20.63;;;7.00;99.90;;;;;;5066262;28;20427;-58
2022/03/18 01:27:01;;;;;;;34.57;19.67;;;7.00;99.90;;;;;;5063704;28;20468;-58
2022/03/18 01:29:26;;;;;;;32.77;20.23;;;7.00;99.90;;;;;;5065079;28;20417;-58
2022/03/18 01:31:52;;;;;;;30.80;18.73;;;7.00;99.90;;;;;;5054052;28;20188;-57
2022/03/18 01:34:17;;;;;;;30.80;18.60;;;6.90;99.90;;;;;;5065971;28;20173;-58
2022/03/18 01:36:43;;;;;;;29.10;19.30;;;6.90;99.90;;;;;;5063227;28;20184;-58
2022/03/18 01:39:09;;;;;;;30.40;16.80;;;6.90;99.90;;;;;;5063730;28;20277;-58
2022/03/18 01:41:34;;;;;;;30.13;18.63;;;6.90;99.90;;;;;;5060591;28;20592;-58
2022/03/18 01:44:00;;;;;;;30.93;17.83;;;6.90;99.90;;;;;;5067401;28;20190;-59
2022/03/18 01:46:26;;;;;;;28.17;17.70;;;6.90;99.90;;;;;;5065550;28;20228;-58
2022/03/18 01:48:52;;;;;;;28.63;17.27;;;6.90;99.90;;;;;;5064944;28;20171;-58
2022/03/18 01:51:19;;;;;;;33.23;16.77;;;6.90;99.90;;;;;;5057450;28;20435;-58
2022/03/18 01:53:46;;;;;;;28.07;18.30;;;6.90;99.90;;;;;;5068352;28;20984;-58
2022/03/18 01:56:13;;;;;;;28.17;16.30;;;6.80;99.90;;;;;;5065424;28;20420;-58
2022/03/18 01:58:38;;;;;;;29.33;17.23;;;6.80;99.90;;;;;;5064130;28;20429;-58
2022/03/18 02:01:04;;;;;;;26.90;18.23;;;6.80;99.90;;;;;;5065155;28;20432;-58
2022/03/18 02:03:30;;;;;;;34.77;19.57;;;6.80;99.90;;;;;;5067775;28;20214;-58
2022/03/18 02:05:56;;;;;;;34.27;19.33;;;6.80;99.90;;;;;;5070160;28;20223;-58
2022/03/18 02:08:22;;;;;;;36.73;22.37;;;6.80;99.90;;;;;;5067378;28;20254;-58
2022/03/18 02:10:48;;;;;;;38.90;22.00;;;6.80;99.90;;;;;;5067342;28;20904;-59
2022/03/18 02:13:14;;;;;;;35.23;21.10;;;6.80;99.90;;;;;;5065519;28;20479;-58
2022/03/18 02:15:40;;;;;;;38.63;22.10;;;6.80;99.90;;;;;;5061800;28;20511;-57
2022/03/18 02:18:06;;;;;;;48.67;22.83;;;6.80;99.90;;;;;;5062382;28;20170;-58
2022/03/18 02:20:35;;;;;;;39.20;22.10;;;6.80;99.90;;;;;;5066212;28;20835;-58
2022/03/18 02:23:01;;;;;;;39.37;23.27;;;6.80;99.90;;;;;;5066806;28;20527;-59
2022/03/18 02:25:28;;;;;;;42.93;21.50;;;6.80;99.90;;;;;;5064430;28;20516;-58
2022/03/18 02:27:57;;;;;;;40.47;22.47;;;6.80;99.90;;;;;;5067741;28;20468;-58
2022/03/18 02:30:25;;;;;;;36.47;20.97;;;6.80;99.90;;;;;;5067656;28;20435;-58
2022/03/18 02:32:50;;;;;;;42.63;23.30;;;6.80;99.90;;;;;;5064252;28;20425;-59
2022/03/18 02:35:16;;;;;;;44.00;22.43;;;6.70;99.90;;;;;;5066391;28;20482;-60
2022/03/18 02:37:42;;;;;;;46.97;24.57;;;6.70;99.90;;;;;;5071922;28;20737;-59
2022/03/18 02:40:08;;;;;;;41.50;23.87;;;6.70;99.90;;;;;;5064269;28;20179;-58
2022/03/18 02:42:34;;;;;;;40.43;22.53;;;6.70;99.90;;;;;;5071892;28;20203;-58
2022/03/18 02:45:00;;;;;;;53.10;24.23;;;6.60;99.90;;;;;;5063318;28;20429;-58
2022/03/18 02:47:26;;;;;;;39.97;22.50;;;6.60;99.90;;;;;;5064746;28;20851;-58
2022/03/18 02:49:52;;;;;;;40.63;23.13;;;6.60;99.90;;;;;;5064483;28;20261;-60
2022/03/18 02:52:19;;;;;;;45.23;23.13;;;6.50;99.90;;;;;;5069270;28;20476;-59
2022/03/18 02:54:45;;;;;;;43.10;22.13;;;6.50;99.90;;;;;;5068330;28;20171;-58
2022/03/18 02:57:11;;;;;;;45.33;23.50;;;6.50;99.90;;;;;;5064166;28;20424;-58
2022/03/18 02:59:37;;;;;;;48.83;22.73;;;6.50;99.90;;;;;;5070559;28;20428;-58
2022/03/18 03:02:03;;;;;;;42.07;22.50;;;6.50;99.90;;;;;;5067119;28;20424;-57
2022/03/18 03:04:29;;;;;;;40.83;22.87;;;6.50;99.90;;;;;;5070360;28;20243;-57
2022/03/18 03:09:39;;;;;;;40.33;22.33;;;6.50;99.90;;;;;;5070160;28;20601;-57
2022/03/18 03:12:04;;;;;;;43.00;24.03;;;6.50;99.90;;;;;;5069166;28;20424;-59
2022/03/18 03:14:30;;;;;;;49.63;22.50;;;6.50;99.90;;;;;;5067663;28;20224;-58
2022/03/18 03:16:56;;;;;;;36.80;20.70;;;6.50;99.90;;;;;;5064828;28;21071;-58
2022/03/18 03:19:21;;;;;;;43.17;22.43;;;6.50;99.90;;;;;;5070431;28;20175;-59
2022/03/18 03:21:47;;;;;;;40.80;23.03;;;6.50;99.90;;;;;;5070376;28;20653;-58
2022/03/18 03:24:14;;;;;;;44.07;21.87;;;6.50;99.90;;;;;;5060845;28;20326;-58
2022/03/18 03:26:40;;;;;;;38.73;21.90;;;6.50;99.90;;;;;;5069757;28;20535;-58
2022/03/18 03:29:06;;;;;;;43.57;21.57;;;6.40;99.90;;;;;;5070888;28;20933;-59
2022/03/18 03:31:31;;;;;;;44.50;24.07;;;6.40;99.90;;;;;;5067295;28;20228;-59
2022/03/18 03:33:57;;;;;;;43.27;22.27;;;6.40;99.90;;;;;;5068808;28;20658;-59
2022/03/18 03:36:23;;;;;;;39.97;23.00;;;6.40;99.90;;;;;;5063003;28;20179;-57
2022/03/18 03:38:49;;;;;;;45.27;22.90;;;6.40;99.90;;;;;;5068207;28;20174;-59
2022/03/18 03:41:14;;;;;;;37.70;21.97;;;6.40;99.90;;;;;;5063398;28;20435;-58
2022/03/18 03:43:41;;;;;;;50.30;24.83;;;6.40;99.90;;;;;;5070918;28;20685;-58
2022/03/18 03:46:07;;;;;;;45.93;22.93;;;6.40;99.90;;;;;;5066021;28;20170;-58
2022/03/18 03:48:33;;;;;;;50.30;24.53;;;6.40;99.90;;;;;;5069207;28;20424;-58
2022/03/18 03:50:58;;;;;;;49.80;22.90;;;6.40;99.90;;;;;;5069064;28;20178;-57
2022/03/18 03:53:24;;;;;;;46.77;24.60;;;6.40;99.90;;;;;;5069948;28;20202;-58
2022/03/18 03:55:50;;;;;;;44.97;24.63;;;6.40;99.90;;;;;;5067832;28;20764;-58
2022/03/18 03:58:16;;;;;;;45.97;23.20;;;6.40;99.90;;;;;;5066429;28;20177;-59
2022/03/18 04:00:42;;;;;;;39.33;22.53;;;6.40;99.90;;;;;;5065486;28;20566;-58
2022/03/18 04:03:07;;;;;;;45.43;23.03;;;6.40;99.90;;;;;;5074358;28;20452;-58
2022/03/18 04:05:34;;;;;;;38.40;22.07;;;6.40;99.90;;;;;;5064386;28;20581;-59
2022/03/18 04:08:01;;;;;;;42.90;24.07;;;6.40;99.90;;;;;;5068477;28;20387;-59
2022/03/18 04:10:27;;;;;;;46.67;24.97;;;6.40;99.90;;;;;;5073754;28;20420;-58
2022/03/18 04:12:54;;;;;;;47.70;23.00;;;6.40;99.90;;;;;;5069423;28;21008;-59
2022/03/18 04:15:21;;;;;;;47.67;23.83;;;6.40;99.90;;;;;;5066447;28;20417;-57
2022/03/18 04:17:48;;;;;;;49.03;24.50;;;6.40;99.90;;;;;;5065920;28;20425;-57
2022/03/18 04:20:24;;;;;;;40.20;22.23;;;6.30;99.90;;;;;;5064801;28;20976;-59
2022/03/18 04:22:50;;;;;;;46.53;25.10;;;6.40;99.90;;;;;;5065581;28;21002;-58
2022/03/18 04:25:17;;;;;;;49.07;22.63;;;6.40;99.90;;;;;;5068390;28;20452;-57
2022/03/18 04:27:42;;;;;;;43.20;22.27;;;6.40;99.90;;;;;;5065535;28;20488;-58
2022/03/18 04:30:11;;;;;;;44.97;22.60;;;6.40;99.90;;;;;;5069234;28;20490;-57
2022/03/18 04:32:37;;;;;;;45.23;24.23;;;6.40;99.90;;;;;;5062644;28;20609;-58
2022/03/18 04:35:07;;;;;;;45.37;23.80;;;6.40;99.90;;;;;;5061708;28;20947;-58
2022/03/18 04:37:34;;;;;;;39.43;22.73;;;6.40;99.90;;;;;;5067868;28;20487;-59
2022/03/18 04:40:00;;;;;;;41.00;22.70;;;6.40;99.90;;;;;;5061776;28;20846;-58
2022/03/18 04:42:25;;;;;;;49.63;22.07;;;6.40;99.90;;;;;;5068613;28;20461;-59
2022/03/18 04:44:51;;;;;;;45.57;24.37;;;6.40;99.90;;;;;;5065713;28;20472;-58
2022/03/18 04:47:17;;;;;;;45.20;24.03;;;6.30;99.90;;;;;;5066773;28;20198;-58
2022/03/18 04:49:42;;;;;;;50.97;25.40;;;6.40;99.90;;;;;;5063256;28;20178;-58
2022/03/18 04:52:08;;;;;;;55.03;25.37;;;6.40;99.90;;;;;;5068838;28;20190;-59
2022/03/18 04:54:34;;;;;;;43.63;24.33;;;6.40;99.90;;;;;;5066424;28;20244;-58
2022/03/18 04:57:15;;;;;;;44.37;23.53;;;6.40;99.90;;;;;;5066286;28;20670;-58
2022/03/18 04:59:41;;;;;;;44.90;24.93;;;6.40;99.90;;;;;;5059623;28;20538;-58
2022/03/18 05:02:10;;;;;;;43.87;23.77;;;6.40;99.90;;;;;;5061247;28;20468;-60
2022/03/18 05:04:37;;;;;;;50.00;24.80;;;6.40;99.90;;;;;;5061786;28;21112;-57
2022/03/18 05:07:04;;;;;;;48.87;23.80;;;6.40;99.90;;;;;;5068272;28;20444;-58
2022/03/18 05:09:29;;;;;;;43.77;24.17;;;6.40;99.90;;;;;;5062873;28;20416;-57
2022/03/18 05:11:55;;;;;;;47.10;25.43;;;6.50;99.90;;;;;;5063905;28;20489;-58
2022/03/18 05:14:21;;;;;;;46.27;25.47;;;6.50;99.90;;;;;;5061068;28;20171;-60
2022/03/18 05:16:46;;;;;;;48.40;25.63;;;6.50;99.90;;;;;;5062285;28;21538;-61
2022/03/18 05:19:12;;;;;;;48.03;25.00;;;6.50;99.90;;;;;;5064576;28;20677;-61
2022/03/18 05:21:39;;;;;;;51.33;26.60;;;6.50;99.90;;;;;;5060493;28;20265;-61
2022/03/18 05:24:06;;;;;;;48.83;26.03;;;6.50;99.90;;;;;;5061430;28;20277;-62
2022/03/18 05:26:32;;;;;;;46.57;24.50;;;6.50;99.90;;;;;;5067174;28;20679;-61
2022/03/18 05:28:58;;;;;;;59.57;28.13;;;6.50;99.90;;;;;;5063833;28;20435;-61
2022/03/18 05:31:26;;;;;;;50.77;25.37;;;6.50;99.90;;;;;;5058646;28;20510;-61
2022/03/18 05:33:52;;;;;;;53.80;27.53;;;6.50;99.90;;;;;;5057797;28;20191;-64
2022/03/18 05:36:17;;;;;;;52.67;26.70;;;6.50;99.90;;;;;;5057978;28;20465;-59
2022/03/18 05:38:43;;;;;;;45.83;25.47;;;6.50;99.90;;;;;;5057469;28;20459;-60
2022/03/18 05:41:09;;;;;;;49.50;28.30;;;6.50;99.90;;;;;;5060761;28;20262;-60
2022/03/18 05:43:36;;;;;;;52.53;28.53;;;6.60;99.90;;;;;;5061285;28;20222;-60
2022/03/18 05:46:01;;;;;;;53.27;29.20;;;6.60;99.90;;;;;;5059587;28;20162;-61
2022/03/18 05:48:27;;;;;;;50.87;27.47;;;6.60;99.90;;;;;;5061744;28;20429;-60
2022/03/18 05:50:53;;;;;;;50.97;27.00;;;6.60;99.90;;;;;;5063808;28;20213;-60
2022/03/18 05:53:18;;;;;;;56.60;28.43;;;6.60;99.90;;;;;;5065986;28;20286;-60
2022/03/18 05:58:29;;;;;;;55.30;29.63;;;6.60;99.90;;;;;;5065327;28;20205;-59
2022/03/18 06:00:55;;;;;;;59.80;30.07;;;6.60;99.90;;;;;;5067421;28;20428;-60
2022/03/18 06:03:21;;;;;;;57.80;30.23;;;6.60;99.90;;;;;;5064703;28;20461;-62
2022/03/18 06:05:47;;;;;;;54.87;30.03;;;6.60;99.90;;;;;;5058632;28;20436;-60
2022/03/18 06:13:41;;;;;;;58.67;31.80;;;6.60;99.90;;;;;;5067983;28;20528;-61
2022/03/18 06:16:07;;;;;;;60.93;32.90;;;6.60;99.90;;;;;;5070457;28;20899;-61
2022/03/18 06:18:32;;;;;;;57.10;30.97;;;6.60;99.90;;;;;;5072369;28;20565;-60
2022/03/18 06:20:59;;;;;;;61.20;31.00;;;6.60;99.90;;;;;;5069537;28;20166;-61
2022/03/18 06:23:25;;;;;;;63.53;32.60;;;6.60;99.90;;;;;;5068336;28;20213;-59
2022/03/18 06:25:51;;;;;;;60.77;33.77;;;6.70;99.90;;;;;;5071965;28;20451;-60
2022/03/18 06:28:17;;;;;;;59.73;31.33;;;6.70;99.90;;;;;;5070897;28;20836;-60
2022/03/18 06:30:42;;;;;;;62.03;31.87;;;6.70;99.90;;;;;;5066426;28;20270;-61
2022/03/18 06:33:08;;;;;;;62.17;32.00;;;6.70;99.90;;;;;;5070992;28;20198;-59
2022/03/18 06:35:34;;;;;;;62.00;33.40;;;6.70;99.90;;;;;;5069220;28;20551;-61
2022/03/18 06:37:59;;;;;;;62.63;32.73;;;6.80;99.90;;;;;;5063822;28;20648;-60
2022/03/18 06:40:25;;;;;;;64.77;33.67;;;6.80;99.90;;;;;;5071332;28;20535;-60
2022/03/18 06:42:51;;;;;;;62.90;33.27;;;6.80;99.90;;;;;;5072297;28;20194;-60
2022/03/18 06:45:17;;;;;;;58.03;31.20;;;6.80;99.90;;;;;;5067557;28;20229;-60
2022/03/18 06:47:42;;;;;;;66.50;35.27;;;6.80;99.90;;;;;;5069996;28;20243;-60
2022/03/18 06:50:09;;;;;;;66.93;33.97;;;6.90;99.90;;;;;;5071290;28;20174;-60
2022/03/18 06:52:35;;;;;;;70.60;35.27;;;6.90;99.90;;;;;;5071072;28;20190;-61
2022/03/18 06:55:01;;;;;;;66.80;34.23;;;6.90;99.90;;;;;;5067152;28;21006;-61
2022/03/18 06:57:27;;;;;;;66.23;34.17;;;7.00;99.90;;;;;;5071641;28;20429;-61
2022/03/18 06:59:52;;;;;;;69.93;34.93;;;7.00;99.90;;;;;;5067844;28;20456;-60
2022/03/18 07:02:18;;;;;;;62.17;32.60;;;7.00;99.90;;;;;;5064246;28;20285;-60
2022/03/18 07:04:44;;;;;;;67.13;35.13;;;7.00;99.90;;;;;;5063331;28;20173;-61
2022/03/18 07:07:10;;;;;;;63.97;34.23;;;7.00;99.90;;;;;;5072390;28;20206;-61
2022/03/18 07:09:36;;;;;;;63.43;33.00;;;7.00;99.90;;;;;;5070023;28;20595;-60
2022/03/18 07:12:02;;;;;;;65.43;34.33;;;7.00;99.90;;;;;;5065870;28;20194;-61
2022/03/18 07:14:28;;;;;;;61.93;33.07;;;7.10;99.90;;;;;;5071612;28;20463;-61
2022/03/18 07:19:38;;;;;;;67.73;34.43;;;7.10;99.90;;;;;;5059666;28;20516;-61
2022/03/18 07:22:05;;;;;;;65.13;34.53;;;7.10;99.90;;;;;;5070791;28;20515;-60
2022/03/18 07:24:31;;;;;;;62.63;34.63;;;7.10;99.90;;;;;;5070514;28;20819;-61
2022/03/18 07:26:57;;;;;;;64.33;34.53;;;7.10;99.90;;;;;;5072231;28;20444;-60
2022/03/18 07:29:23;;;;;;;66.80;35.80;;;7.10;99.90;;;;;;5063086;28;20468;-61
2022/03/18 07:31:51;;;;;;;69.90;35.40;;;7.20;99.90;;;;;;5068581;28;20216;-61
2022/03/18 07:34:16;;;;;;;62.20;34.50;;;7.20;99.90;;;;;;5058691;28;20262;-61
2022/03/18 07:36:42;;;;;;;66.77;35.30;;;7.20;99.90;;;;;;5064479;28;20525;-60
2022/03/18 07:39:08;;;;;;;69.37;35.90;;;7.20;99.90;;;;;;5069876;28;20198;-61
2022/03/18 07:41:35;;;;;;;67.53;35.23;;;7.30;99.90;;;;;;5071439;28;20656;-60
2022/03/18 07:44:01;;;;;;;67.83;35.73;;;7.30;99.90;;;;;;5070423;28;20198;-61
2022/03/18 07:46:27;;;;;;;67.07;35.83;;;7.30;99.90;;;;;;5065747;28;20440;-61
2022/03/18 07:48:52;;;;;;;67.87;36.83;;;7.30;99.90;;;;;;5074587;28;20427;-61
2022/03/18 07:51:18;;;;;;;65.20;35.50;;;7.30;99.90;;;;;;5074815;28;20519;-60
2022/03/18 07:53:44;;;;;;;70.93;37.03;;;7.40;99.90;;;;;;5072330;28;20746;-61
2022/03/18 07:56:09;;;;;;;71.63;36.00;;;7.30;99.90;;;;;;5067969;28;20671;-62
2022/03/18 07:58:35;;;;;;;65.00;33.63;;;7.30;99.90;;;;;;5068231;28;20159;-62
2022/03/18 08:01:01;;;;;;;72.47;36.77;;;7.30;99.90;;;;;;5067582;28;20178;-61
2022/03/18 08:03:26;;;;;;;66.47;36.30;;;7.30;99.90;;;;;;5066675;28;20209;-61
2022/03/18 08:05:52;;;;;;;78.20;36.40;;;7.30;99.90;;;;;;5068469;28;20174;-60
2022/03/18 08:08:17;;;;;;;69.50;37.47;;;7.30;99.90;;;;;;5068115;28;20199;-61
2022/03/18 08:10:43;;;;;;;76.53;37.03;;;7.40;99.90;;;;;;5065290;28;20232;-60
2022/03/18 08:13:09;;;;;;;77.37;38.03;;;7.40;99.90;;;;;;5071172;28;20240;-63
2022/03/18 08:15:35;;;;;;;71.03;38.03;;;7.50;99.90;;;;;;5066146;28;20552;-61
2022/03/18 08:18:02;;;;;;;69.37;37.43;;;7.50;99.90;;;;;;5066685;28;20170;-61
2022/03/18 08:20:28;;;;;;;79.23;37.57;;;7.50;99.90;;;;;;5065385;28;20236;-61
2022/03/18 08:22:54;;;;;;;69.00;35.13;;;7.50;99.90;;;;;;5057748;28;20456;-61
2022/03/18 08:25:20;;;;;;;73.43;37.03;;;7.50;99.90;;;;;;5064545;28;20247;-60
2022/03/18 08:27:48;;;;;;;71.63;36.40;;;7.60;99.90;;;;;;5062641;28;20209;-61
2022/03/18 08:30:14;;;;;;;76.97;38.50;;;7.70;99.90;;;;;;5060245;28;20967;-61
2022/03/18 08:32:40;;;;;;;73.43;36.33;;;7.70;99.90;;;;;;5061831;28;20563;-61
2022/03/18 08:35:07;;;;;;;71.83;37.43;;;7.70;99.90;;;;;;5065319;28;20167;-60
2022/03/18 08:40:17;;;;;;;79.00;38.60;;;7.80;99.90;;;;;;5063612;28;20436;-60
2022/03/18 08:42:43;;;;;;;70.63;37.80;;;7.90;99.90;;;;;;5063996;28;20448;-63
2022/03/18 08:45:09;;;;;;;78.13;37.07;;;7.90;99.90;;;;;;5061800;28;20178;-60
2022/03/18 08:47:36;;;;;;;74.10;38.93;;;8.00;99.90;;;;;;5063198;28;20218;-61
2022/03/18 08:50:03;;;;;;;72.13;38.63;;;8.00;99.90;;;;;;5063523;28;20509;-62
2022/03/18 08:52:29;;;;;;;72.43;37.57;;;8.10;99.90;;;;;;5064585;28;20206;-61
2022/03/18 08:54:55;;;;;;;74.77;39.23;;;8.20;99.10;;;;;;5058034;28;20444;-61
2022/03/18 08:57:20;;;;;;;70.80;37.40;;;8.20;98.00;;;;;;5062175;28;20186;-61
2022/03/18 08:59:46;;;;;;;82.33;38.37;;;8.20;97.30;;;;;;5061123;28;20296;-61
2022/03/18 09:02:12;;;;;;;72.40;36.97;;;8.30;96.50;;;;;;5063682;28;20299;-61
2022/03/18 09:04:37;;;;;;;73.20;38.87;;;8.40;96.00;;;;;;5062908;28;20190;-60
2022/03/18 09:07:03;;;;;;;79.07;39.00;;;8.40;93.60;;;;;;5063553;28;20198;-61
2022/03/18 09:09:29;;;;;;;72.33;38.00;;;8.50;92.70;;;;;;5063699;28;20570;-60
2022/03/18 09:11:55;;;;;;;72.63;37.20;;;8.50;90.60;;;;;;5062242;28;20425;-62
2022/03/18 09:14:21;;;;;;;69.50;37.43;;;8.50;90.20;;;;;;5064320;28;20178;-60
2022/03/18 09:16:49;;;;;;;70.07;38.20;;;8.60;90.00;;;;;;5063505;28;20474;-62
2022/03/18 09:19:14;;;;;;;67.13;36.30;;;8.60;90.10;;;;;;5060263;28;20432;-61
2022/03/18 09:21:40;;;;;;;70.37;35.70;;;8.60;90.30;;;;;;5062218;28;20428;-61
2022/03/18 09:24:06;;;;;;;74.13;38.27;;;8.60;88.00;;;;;;5060514;28;20198;-60
2022/03/18 09:26:32;;;;;;;63.87;33.83;;;8.60;86.60;;;;;;5061181;28;20538;-61
2022/03/18 09:28:58;;;;;;;66.67;36.60;;;8.60;88.00;;;;;;5056264;28;20460;-61
2022/03/18 09:31:23;;;;;;;75.93;36.63;;;8.60;82.90;;;;;;5054630;28;20666;-57
2022/03/18 09:33:49;;;;;;;63.33;35.17;;;8.60;83.20;;;;;;5059385;28;20573;-60
2022/03/18 09:36:18;;;;;;;69.10;36.33;;;8.60;82.50;;;;;;5057687;28;20210;-61
2022/03/18 09:38:45;;;;;;;65.60;34.87;;;8.70;82.80;;;;;;5057052;28;20702;-60
2022/03/18 09:41:10;;;;;;;62.73;34.27;;;8.80;80.60;;;;;;5060124;28;20424;-60
2022/03/18 09:43:38;;;;;;;67.60;36.77;;;8.90;79.30;;;;;;5063999;28;20821;-60
2022/03/18 09:46:05;;;;;;;74.80;37.20;;;9.00;80.20;;;;;;5063152;28;20181;-61
2022/03/18 09:48:32;;;;;;;67.10;35.73;;;9.20;81.60;;;;;;5065289;28;21802;-60
2022/03/18 09:50:58;;;;;;;65.27;35.13;;;9.30;82.90;;;;;;5065144;28;20474;-60
2022/03/18 09:53:25;;;;;;;65.27;34.03;;;9.40;79.50;;;;;;5061589;28;20480;-60
2022/03/18 09:55:51;;;;;;;65.23;35.10;;;9.40;77.00;;;;;;5060309;28;20956;-60
2022/03/18 09:58:18;;;;;;;64.10;34.27;;;9.40;76.20;;;;;;5064863;28;20444;-60
2022/03/18 10:00:45;;;;;;;57.03;31.83;;;9.40;77.10;;;;;;5060593;28;20444;-61
2022/03/18 10:03:13;;;;;;;63.07;33.00;;;9.40;76.60;;;;;;5060421;28;20984;-60
2022/03/18 10:05:58;;;;;;;59.37;31.67;;;9.40;74.30;;;;;;5065534;28;20454;-61
2022/03/18 10:08:25;;;;;;;63.87;35.40;;;9.30;73.80;;;;;;5055031;28;20522;-61
2022/03/18 10:10:51;;;;;;;65.13;34.60;;;9.20;73.30;;;;;;5056691;28;20454;-61
2022/03/18 10:13:18;;;;;;;64.60;32.97;;;9.20;73.30;;;;;;5062022;28;20517;-61
2022/03/18 10:15:44;;;;;;;61.20;32.93;;;9.20;73.50;;;;;;5057478;28;20536;-61
2022/03/18 10:18:12;;;;;;;61.93;33.97;;;9.30;74.90;;;;;;5062312;28;20516;-61
2022/03/18 10:20:40;;;;;;;63.93;33.67;;;9.40;75.60;;;;;;5060546;28;20424;-61
2022/03/18 10:23:15;;;;;;;56.90;31.97;;;9.50;72.60;;;;;;5059836;28;20871;-60
2022/03/18 10:25:50;;;;;;;60.07;32.93;;;9.50;72.20;;;;;;5064905;28;20428;-60
2022/03/18 10:28:39;;;;;;;56.50;30.57;;;9.50;71.60;;;;;;5059721;28;20460;-60
2022/03/18 10:31:15;;;;;;;59.23;31.10;;;9.50;71.00;;;;;;5059385;28;20850;-61
2022/03/18 10:37:04;;;;;;;52.73;30.17;;;9.60;71.30;;;;;;5060758;28;20435;-60
2022/03/18 10:39:45;;;;;;;57.97;30.67;;;9.60;69.50;;;;;;5060061;28;20431;-60
2022/03/18 10:42:13;;;;;;;57.83;30.63;;;9.60;68.40;;;;;;5058608;28;20721;-59
2022/03/18 10:44:51;;;;;;;52.67;29.60;;;9.60;67.60;;;;;;5059891;28;20441;-60
2022/03/18 10:47:24;;;;;;;48.57;28.87;;;9.50;66.80;;;;;;5059343;28;20466;-59
2022/03/18 10:49:49;;;;;;;56.40;30.80;;;9.50;66.00;;;;;;5062576;28;20456;-60
2022/03/18 10:52:15;;;;;;;49.23;28.50;;;9.40;65.50;;;;;;5059998;28;20501;-58
2022/03/18 10:54:41;;;;;;;52.40;29.70;;;9.40;66.10;;;;;;5061791;28;20166;-59
2022/03/18 10:57:06;;;;;;;52.30;30.17;;;9.40;66.60;;;;;;5057726;28;20263;-60
2022/03/18 10:59:32;;;;;;;53.40;28.70;;;9.40;66.30;;;;;;5061472;28;20814;-60
2022/03/18 11:02:00;;;;;;;56.90;29.10;;;9.40;66.20;;;;;;5061931;28;20178;-60
2022/03/18 11:04:26;;;;;;;53.17;28.57;;;9.40;66.20;;;;;;5080482;28;20179;-66
2022/03/18 11:12:31;;;;;;;55.70;27.80;;;9.50;65.10;;;;;;5059017;28;21084;-60
2022/03/18 11:14:58;;;;;;;47.87;27.53;;;9.60;65.00;;;;;;5061544;28;20432;-59
2022/03/18 11:17:24;;;;;;;51.37;28.77;;;9.60;65.20;;;;;;5057968;28;20459;-60
2022/03/18 11:19:54;;;;;;;55.13;29.90;;;9.60;64.50;;;;;;5059109;28;20491;-61
2022/03/18 11:22:22;;;;;;;55.37;29.10;;;9.70;64.20;;;;;;5059838;28;20449;-60
2022/03/18 11:24:49;;;;;;;45.50;27.03;;;9.80;64.30;;;;;;5057862;28;20436;-61
2022/03/18 11:27:16;;;;;;;49.33;28.33;;;9.90;64.10;;;;;;5057958;28;20463;-59
2022/03/18 11:29:42;;;;;;;52.47;29.23;;;10.00;62.10;;;;;;5057144;28;20515;-60
2022/03/18 11:32:14;;;;;;;53.80;25.43;;;10.10;61.10;;;;;;5060345;28;20437;-60
2022/03/18 11:34:47;;;;;;;44.57;26.20;;;10.20;60.00;;;;;;5058131;28;20649;-61
2022/03/18 11:37:13;;;;;;;45.67;27.27;;;10.20;59.60;;;;;;5056242;28;20427;-61
2022/03/18 11:39:39;;;;;;;49.00;25.27;;;10.30;59.30;;;;;;5059622;28;20424;-60
2022/03/18 11:42:09;;;;;;;45.37;25.93;;;10.40;59.60;;;;;;5059314;28;20273;-61
2022/03/18 11:44:45;;;;;;;45.07;26.30;;;10.50;59.40;;;;;;5056636;28;20187;-62
2022/03/18 11:47:23;;;;;;;43.33;26.10;;;10.70;58.80;;;;;;5058280;28;20555;-57
2022/03/18 11:49:49;;;;;;;43.50;25.70;;;10.90;58.70;;;;;;5057046;28;20436;-60
2022/03/18 11:52:16;;;;;;;44.00;26.70;;;11.00;58.50;;;;;;5061543;28;20445;-59
2022/03/18 11:54:54;;;;;;;47.40;25.07;;;11.20;58.30;;;;;;5058418;28;20430;-60
2022/03/18 11:57:33;;;;;;;42.70;24.20;;;11.30;57.10;;;;;;5055067;28;20838;-61
2022/03/18 12:00:05;;;;;;;41.03;24.80;;;11.40;56.90;;;;;;5053382;28;20432;-60
2022/03/18 12:02:38;;;;;;;41.97;23.80;;;11.50;56.70;;;;;;5056017;28;20468;-62
2022/03/18 12:05:07;;;;;;;44.53;26.63;;;11.60;56.20;;;;;;5057129;28;20443;-61
2022/03/18 12:07:51;;;;;;;45.30;24.83;;;11.80;56.40;;;;;;5059119;28;20886;-61
2022/03/18 12:10:34;;;;;;;38.50;22.00;;;11.80;55.80;;;;;;5054772;28;20425;-61
2022/03/18 12:13:03;;;;;;;43.37;24.00;;;12.00;55.00;;;;;;5056965;28;20444;-61
2022/03/18 12:15:30;;;;;;;39.73;23.13;;;12.00;54.20;;;;;;5060121;28;20524;-60
2022/03/18 12:17:57;;;;;;;42.30;24.23;;;11.90;53.50;;;;;;5056248;28;20437;-61
2022/03/18 12:20:30;;;;;;;39.00;23.57;;;11.90;53.80;;;;;;5061610;28;20413;-61
2022/03/18 12:22:56;;;;;;;41.10;23.73;;;11.80;53.70;;;;;;5058100;28;20464;-61
2022/03/18 12:25:23;;;;;;;42.47;23.80;;;11.80;53.90;;;;;;5060168;28;20438;-60
2022/03/18 12:27:50;;;;;;;38.57;23.20;;;11.70;53.60;;;;;;5057517;28;20461;-60
2022/03/18 12:30:18;;;;;;;39.23;24.30;;;11.70;53.80;;;;;;5057556;28;20421;-60
2022/03/18 12:33:00;;;;;;;39.77;24.00;;;11.60;53.10;;;;;;5058777;28;20447;-62
2022/03/18 12:35:37;;;;;;;36.87;22.27;;;11.50;53.30;;;;;;5055127;28;20428;-61
2022/03/18 12:38:06;;;;;;;36.20;22.27;;;11.50;53.50;;;;;;5052834;28;20460;-61
2022/03/18 12:40:34;;;;;;;38.17;22.50;;;11.50;53.20;;;;;;5053162;28;20430;-60
2022/03/18 12:43:02;;;;;;;37.43;22.97;;;11.60;53.10;;;;;;5058417;28;20477;-59
2022/03/18 12:45:33;;;;;;;38.43;22.93;;;11.70;53.80;;;;;;5054645;28;20433;-60
2022/03/18 12:48:07;;;;;;;37.20;23.47;;;11.80;53.70;;;;;;5054393;28;20473;-60
2022/03/18 12:50:36;;;;;;;40.67;23.00;;;11.90;53.30;;;;;;5057732;28;20425;-59
2022/03/18 12:53:13;;;;;;;39.90;23.30;;;11.90;53.30;;;;;;5056053;28;20474;-61
2022/03/18 12:55:40;;;;;;;38.23;24.67;;;11.90;53.30;;;;;;5055160;28;21098;-61
2022/03/18 12:58:06;;;;;;;37.80;23.73;;;11.80;53.20;;;;;;5057613;28;20470;-61
2022/03/18 13:00:42;;;;;;;41.53;24.53;;;11.80;53.20;;;;;;5059723;28;20536;-62
2022/03/18 13:03:17;;;;;;;44.33;25.47;;;11.70;53.70;;;;;;5055475;28;20460;-61
2022/03/18 13:05:44;;;;;;;37.37;22.60;;;11.70;54.00;;;;;;5057246;28;21147;-62